createdAt,value
2017-12-30T00:01:35.883Z,76.34
2017-12-30T00:04:06.187Z,76.36
2017-12-30T00:06:35.793Z,76.44
2017-12-30T00:09:06.484Z,76.20
2017-12-30T00:11:37.142Z,75.86
2017-12-30T00:14:07.102Z,75.57
2017-12-30T00:16:36.342Z,75.62
2017-12-30T00:19:05.971Z,75.53
2017-12-30T00:21:35.695Z,75.66
2017-12-30T00:24:06.393Z,75.36
2017-12-30T00:26:35.603Z,74.88
2017-12-30T00:29:05.251Z,74.81
2017-12-30T00:31:34.749Z,74.54
2017-12-30T00:34:04.753Z,73.96
2017-12-30T00:36:34.540Z,73.84
2017-12-30T00:39:04.646Z,73.40
2017-12-30T00:41:33.887Z,73.24
2017-12-30T00:44:05.259Z,73.23
2017-12-30T00:46:35.023Z,72.94
2017-12-30T00:49:04.572Z,73.18
2017-12-30T00:51:33.799Z,72.87
2017-12-30T00:54:04.375Z,73.21
2017-12-30T00:56:33.938Z,73.37
2017-12-30T00:59:03.263Z,73.64
2017-12-30T01:01:32.467Z,73.82
2017-12-30T01:04:03.610Z,73.90
2017-12-30T01:06:32.887Z,73.74
2017-12-30T01:09:02.505Z,73.49
2017-12-30T01:11:32.797Z,73.41
2017-12-30T01:14:03.638Z,73.55
2017-12-30T01:16:33.217Z,73.70
2017-12-30T01:19:03.016Z,73.59
2017-12-30T01:21:33.635Z,73.51
2017-12-30T01:24:04.970Z,73.19
2017-12-30T01:26:34.290Z,73.19
2017-12-30T01:29:03.946Z,73.33
2017-12-30T01:31:33.268Z,73.44
2017-12-30T01:34:04.467Z,73.48
2017-12-30T01:36:34.245Z,73.62
2017-12-30T01:39:04.042Z,73.79
2017-12-30T01:41:33.462Z,73.97
2017-12-30T01:44:04.106Z,74.41
2017-12-30T01:46:33.342Z,74.49
2017-12-30T01:49:05.528Z,74.67
2017-12-30T01:51:35.037Z,74.68
2017-12-30T01:54:06.038Z,74.97
2017-12-30T01:56:35.257Z,74.57
2017-12-30T01:59:04.743Z,74.62
2017-12-30T02:01:34.022Z,74.23
2017-12-30T02:04:04.339Z,73.91
2017-12-30T02:06:33.563Z,73.51
2017-12-30T02:09:02.873Z,73.21
2017-12-30T02:11:32.394Z,72.74
2017-12-30T02:14:02.826Z,72.75
2017-12-30T02:16:32.038Z,73.00
2017-12-30T02:19:02.157Z,73.23
2017-12-30T02:21:31.375Z,73.70
2017-12-30T02:24:00.581Z,73.91
2017-12-30T02:26:29.861Z,74.23
2017-12-30T02:28:59.114Z,74.44
2017-12-30T02:31:28.626Z,74.70
2017-12-30T02:33:57.819Z,74.78
2017-12-30T02:36:27.030Z,74.61
2017-12-30T02:38:56.973Z,74.68
2017-12-30T02:41:26.195Z,74.75
2017-12-30T02:43:55.475Z,74.88
2017-12-30T02:46:25.121Z,74.58
2017-12-30T02:48:54.339Z,74.94
2017-12-30T02:51:23.677Z,74.80
2017-12-30T02:53:53.344Z,74.91
2017-12-30T02:56:22.556Z,74.99
2017-12-30T02:58:51.860Z,75.11
2017-12-30T03:01:21.382Z,75.26
2017-12-30T03:03:50.663Z,75.31
2017-12-30T03:06:19.913Z,75.20
2017-12-30T03:08:49.432Z,75.22
2017-12-30T03:11:18.666Z,75.35
2017-12-30T03:13:47.895Z,75.71
2017-12-30T03:16:17.447Z,75.66
2017-12-30T03:18:46.664Z,75.62
2017-12-30T03:21:16.169Z,75.63
2017-12-30T03:23:45.679Z,75.83
2017-12-30T03:26:14.894Z,75.97
2017-12-30T03:28:44.148Z,76.08
2017-12-30T03:31:13.649Z,75.95
2017-12-30T03:33:42.830Z,76.02
2017-12-30T03:36:12.085Z,75.96
2017-12-30T03:38:42.474Z,76.01
2017-12-30T03:41:11.797Z,76.00
2017-12-30T03:43:41.285Z,76.11
2017-12-30T03:46:10.572Z,76.03
2017-12-30T03:48:39.766Z,75.74
2017-12-30T03:51:09.270Z,75.69
2017-12-30T03:53:38.540Z,75.84
2017-12-30T03:56:07.757Z,76.15
2017-12-30T03:58:37.274Z,76.11
2017-12-30T04:01:06.475Z,75.83
2017-12-30T04:03:35.828Z,76.05
2017-12-30T04:06:07.901Z,76.05
2017-12-30T04:08:37.102Z,75.86
2017-12-30T04:11:07.630Z,75.85
2017-12-30T04:13:36.794Z,75.41
2017-12-30T04:16:06.975Z,75.42
2017-12-30T04:18:36.463Z,75.60
2017-12-30T04:21:05.663Z,75.28
2017-12-30T04:23:34.878Z,75.17
2017-12-30T04:26:05.665Z,75.17
2017-12-30T04:28:34.878Z,74.94
2017-12-30T04:31:04.212Z,74.83
2017-12-30T04:33:33.749Z,74.83
2017-12-30T04:36:03.696Z,74.81
2017-12-30T04:41:17.626Z,74.92
2017-12-30T04:43:46.818Z,75.00
2017-12-30T04:46:16.360Z,74.95
2017-12-30T04:48:45.563Z,74.82
2017-12-30T04:51:14.782Z,75.05
2017-12-30T04:53:44.329Z,75.08
2017-12-30T04:57:16.152Z,75.23
2017-12-30T04:59:45.375Z,74.93
2017-12-30T05:02:14.629Z,74.94
2017-12-30T05:04:44.130Z,74.59
2017-12-30T05:07:13.501Z,74.79
2017-12-30T05:09:42.702Z,74.68
2017-12-30T05:12:12.359Z,74.78
2017-12-30T05:14:42.055Z,74.88
2017-12-30T05:17:11.340Z,75.08
2017-12-30T05:19:40.837Z,74.70
2017-12-30T05:22:10.172Z,74.79
2017-12-30T05:24:39.351Z,74.42
2017-12-30T05:27:09.849Z,74.50
2017-12-30T05:29:39.157Z,75.04
2017-12-30T05:32:08.583Z,75.17
2017-12-30T05:34:37.804Z,75.28
2017-12-30T05:37:07.000Z,75.32
2017-12-30T05:39:36.219Z,75.34
2017-12-30T05:42:06.579Z,75.36
2017-12-30T05:44:35.812Z,75.62
2017-12-30T05:47:05.384Z,75.53
2017-12-30T05:49:34.879Z,76.04
2017-12-30T05:52:05.246Z,76.32
2017-12-30T05:54:34.431Z,77.14
2017-12-30T05:57:04.072Z,77.07
2017-12-30T05:59:33.293Z,77.12
2017-12-30T06:02:03.297Z,77.27
2017-12-30T06:04:32.821Z,77.94
2017-12-30T06:07:02.106Z,78.16
2017-12-30T06:09:31.322Z,78.41
2017-12-30T06:12:00.545Z,78.46
2017-12-30T06:14:29.757Z,78.97
2017-12-30T06:16:59.518Z,78.97
2017-12-30T06:19:28.716Z,79.69
2017-12-30T06:21:57.896Z,79.69
2017-12-30T06:24:27.449Z,80.35
2017-12-30T06:26:56.668Z,80.24
2017-12-30T06:29:25.901Z,80.22
2017-12-30T06:31:55.424Z,79.84
2017-12-30T06:34:25.294Z,80.04
2017-12-30T06:36:54.502Z,80.50
2017-12-30T06:39:23.997Z,80.32
2017-12-30T06:41:53.229Z,80.50
2017-12-30T06:44:22.514Z,80.48
2017-12-30T06:46:52.057Z,80.51
2017-12-30T06:49:21.256Z,79.93
2017-12-30T06:51:50.501Z,80.16
2017-12-30T06:54:20.015Z,80.25
2017-12-30T06:56:49.237Z,80.16
2017-12-30T06:59:18.413Z,80.38
2017-12-30T07:01:47.922Z,80.75
2017-12-30T07:04:17.418Z,80.51
2017-12-30T07:07:17.325Z,80.94
2017-12-30T07:09:46.559Z,81.17
2017-12-30T07:12:15.961Z,81.19
2017-12-30T07:14:45.180Z,81.43
2017-12-30T07:17:14.544Z,81.52
2017-12-30T07:19:44.046Z,81.55
2017-12-30T07:22:13.395Z,81.73
2017-12-30T07:24:42.627Z,81.48
2017-12-30T07:27:12.183Z,81.72
2017-12-30T07:29:41.387Z,82.06
2017-12-30T07:32:10.692Z,82.01
2017-12-30T07:34:41.251Z,82.29
2017-12-30T07:37:10.525Z,82.39
2017-12-30T07:39:39.775Z,82.51
2017-12-30T07:43:11.625Z,82.60
2017-12-30T07:45:40.933Z,82.51
2017-12-30T07:48:10.588Z,82.31
2017-12-30T07:50:39.890Z,82.22
2017-12-30T07:53:09.147Z,82.44
2017-12-30T07:55:38.630Z,82.51
2017-12-30T07:58:07.823Z,82.29
2017-12-30T08:00:37.079Z,82.13
2017-12-30T08:03:06.639Z,82.26
2017-12-30T08:05:35.829Z,82.28
2017-12-30T08:08:06.658Z,82.39
2017-12-30T08:10:35.850Z,82.52
2017-12-30T08:13:05.420Z,82.43
2017-12-30T08:15:34.938Z,82.11
2017-12-30T08:18:05.123Z,81.79
2017-12-30T08:20:34.299Z,81.81
2017-12-30T08:23:04.143Z,81.82
2017-12-30T08:26:35.968Z,81.94
2017-12-30T08:29:05.490Z,81.77
2017-12-30T08:31:34.686Z,82.13
2017-12-30T08:34:05.107Z,82.02
2017-12-30T08:36:34.384Z,81.90
2017-12-30T08:39:04.195Z,81.86
2017-12-30T08:41:33.700Z,81.71
2017-12-30T08:44:05.237Z,81.54
2017-12-30T08:47:04.848Z,81.28
2017-12-30T08:49:35.204Z,81.52
2017-12-30T08:52:05.637Z,81.13
2017-12-30T08:54:34.993Z,80.82
2017-12-30T08:57:04.582Z,80.64
2017-12-30T08:59:33.770Z,81.00
2017-12-30T09:02:04.280Z,80.78
2017-12-30T09:04:33.585Z,81.04
2017-12-30T09:07:03.157Z,81.04
2017-12-30T09:09:32.930Z,80.91
2017-12-30T09:12:03.091Z,81.21
2017-12-30T09:14:32.401Z,81.42
2017-12-30T09:17:03.246Z,81.54
2017-12-30T09:19:32.446Z,81.54
2017-12-30T09:22:03.839Z,81.45
2017-12-30T09:24:33.356Z,81.46
2017-12-30T09:27:02.812Z,81.44
2017-12-30T09:29:32.037Z,81.37
2017-12-30T09:32:02.432Z,81.57
2017-12-30T09:34:31.680Z,81.58
2017-12-30T09:37:01.029Z,81.89
2017-12-30T09:39:31.501Z,82.60
2017-12-30T09:42:00.887Z,82.42
2017-12-30T09:44:30.467Z,82.71
2017-12-30T09:46:59.965Z,82.86
2017-12-30T09:49:29.187Z,83.13
2017-12-30T09:51:58.679Z,83.13
2017-12-30T09:54:28.845Z,83.26
2017-12-30T09:56:58.139Z,83.27
2017-12-30T09:59:29.244Z,83.71
2017-12-30T10:01:58.674Z,83.98
2017-12-30T10:04:28.240Z,83.87
2017-12-30T10:06:57.487Z,84.07
2017-12-30T10:09:28.621Z,84.22
2017-12-30T10:11:58.318Z,84.09
2017-12-30T10:14:27.593Z,84.10
2017-12-30T10:16:57.390Z,84.43
2017-12-30T10:19:26.875Z,84.61
2017-12-30T10:21:56.086Z,84.81
2017-12-30T10:24:25.610Z,85.12
2017-12-30T10:26:55.114Z,85.02
2017-12-30T10:29:24.523Z,85.24
2017-12-30T10:31:54.081Z,85.60
2017-12-30T10:34:24.282Z,85.65
2017-12-30T10:36:53.494Z,85.94
2017-12-30T10:39:23.043Z,86.08
2017-12-30T10:41:52.368Z,86.28
2017-12-30T10:44:21.608Z,86.25
2017-12-30T10:46:51.288Z,85.95
2017-12-30T10:49:21.399Z,85.82
2017-12-30T10:51:50.899Z,85.71
2017-12-30T10:54:20.722Z,85.64
2017-12-30T10:56:50.004Z,85.46
2017-12-30T10:59:21.101Z,85.57
2017-12-30T11:01:50.795Z,85.32
2017-12-30T11:04:20.018Z,85.25
2017-12-30T11:06:50.930Z,84.99
2017-12-30T11:09:20.126Z,84.78
2017-12-30T11:11:49.381Z,84.70
2017-12-30T11:14:18.911Z,85.12
2017-12-30T11:16:48.169Z,84.87
2017-12-30T11:19:17.402Z,84.58
2017-12-30T11:21:46.909Z,84.22
2017-12-30T11:24:16.116Z,83.87
2017-12-30T11:26:45.331Z,83.89
2017-12-30T11:29:14.558Z,83.64
2017-12-30T11:31:43.809Z,84.03
2017-12-30T11:34:14.423Z,83.74
2017-12-30T11:36:43.709Z,83.83
2017-12-30T11:39:13.333Z,83.42
2017-12-30T11:41:43.179Z,83.37
2017-12-30T11:44:12.591Z,83.28
2017-12-30T11:46:41.818Z,83.17
2017-12-30T11:49:11.508Z,83.46
2017-12-30T11:51:40.868Z,83.82
2017-12-30T11:54:10.310Z,83.83
2017-12-30T11:56:41.035Z,83.72
2017-12-30T12:00:39.505Z,83.54
2017-12-30T12:03:09.038Z,83.56
2017-12-30T12:05:38.269Z,83.57
2017-12-30T12:08:07.854Z,83.34
2017-12-30T12:10:37.384Z,83.48
2017-12-30T12:13:06.609Z,83.01
2017-12-30T12:15:36.858Z,82.64
2017-12-30T12:18:07.590Z,82.56
2017-12-30T12:20:36.813Z,82.71
2017-12-30T12:23:06.066Z,82.78
2017-12-30T12:25:35.582Z,82.54
2017-12-30T12:28:06.986Z,82.72
2017-12-30T12:30:36.224Z,82.50
2017-12-30T12:33:05.464Z,82.34
2017-12-30T12:35:34.680Z,82.33
2017-12-30T12:38:05.351Z,82.43
2017-12-30T12:40:34.550Z,82.80
2017-12-30T12:43:04.204Z,82.84
2017-12-30T12:45:33.711Z,82.92
2017-12-30T12:48:04.574Z,83.02
2017-12-30T12:50:33.832Z,83.21
2017-12-30T12:53:04.023Z,83.17
2017-12-30T12:55:33.212Z,83.17
2017-12-30T12:58:03.403Z,83.17
2017-12-30T13:00:32.989Z,83.24
2017-12-30T13:03:02.474Z,83.26
2017-12-30T13:05:31.717Z,83.29
2017-12-30T13:08:02.746Z,83.42
2017-12-30T13:10:32.902Z,83.35
2017-12-30T13:13:02.512Z,83.43
2017-12-30T13:15:31.693Z,83.41
2017-12-30T13:18:01.256Z,83.37
2017-12-30T13:20:30.805Z,83.38
2017-12-30T13:23:00.084Z,83.25
2017-12-30T13:25:29.588Z,83.22
2017-12-30T13:27:59.145Z,83.40
2017-12-30T13:30:28.423Z,83.20
2017-12-30T13:32:57.714Z,82.62
2017-12-30T13:35:27.868Z,82.07
2017-12-30T13:37:57.379Z,81.63
2017-12-30T13:40:28.057Z,80.60
2017-12-30T13:42:57.301Z,79.96
2017-12-30T13:45:26.597Z,79.38
2017-12-30T13:47:56.111Z,78.91
2017-12-30T13:50:25.887Z,78.68
2017-12-30T13:52:55.134Z,78.54
2017-12-30T13:55:24.655Z,78.17
2017-12-30T13:57:53.898Z,77.84
2017-12-30T14:00:23.136Z,77.77
2017-12-30T14:02:52.320Z,77.14
2017-12-30T14:05:22.631Z,76.80
2017-12-30T14:07:52.121Z,76.45
2017-12-30T14:10:21.355Z,76.33
2017-12-30T14:12:50.606Z,75.53
2017-12-30T14:15:20.117Z,75.13
2017-12-30T14:17:49.391Z,74.80
2017-12-30T14:20:18.704Z,74.84
2017-12-30T14:22:48.262Z,74.66
2017-12-30T14:25:17.475Z,74.73
2017-12-30T14:27:46.725Z,74.35
2017-12-30T14:30:15.974Z,74.62
2017-12-30T14:32:45.256Z,74.75
2017-12-30T14:35:15.407Z,75.00
2017-12-30T14:37:44.659Z,74.81
2017-12-30T14:40:15.509Z,74.95
2017-12-30T14:42:45.483Z,74.67
2017-12-30T14:45:14.874Z,75.10
2017-12-30T14:47:44.271Z,74.79
2017-12-30T14:50:15.256Z,74.79
2017-12-30T14:52:44.625Z,74.64
2017-12-30T14:55:15.333Z,74.71
2017-12-30T14:57:44.843Z,74.58
2017-12-30T15:00:14.160Z,74.39
2017-12-30T15:02:43.569Z,74.14
2017-12-30T15:05:12.987Z,74.13
2017-12-30T15:07:42.197Z,74.29
2017-12-30T15:10:12.151Z,74.38
2017-12-30T15:12:41.459Z,74.27
2017-12-30T15:15:10.745Z,73.93
2017-12-30T15:17:40.274Z,74.12
2017-12-30T15:20:09.693Z,73.98
2017-12-30T15:22:39.087Z,74.02
2017-12-30T15:25:08.594Z,74.05
2017-12-30T15:27:37.787Z,73.92
2017-12-30T15:30:07.012Z,73.89
2017-12-30T15:32:36.206Z,73.21
2017-12-30T15:35:05.570Z,72.83
2017-12-30T15:37:35.076Z,72.57
2017-12-30T15:40:05.610Z,72.31
2017-12-30T15:42:34.858Z,72.26
2017-12-30T15:45:34.817Z,72.24
2017-12-30T15:48:05.591Z,72.34
2017-12-30T15:50:34.887Z,72.03
2017-12-30T15:53:04.831Z,72.07
2017-12-30T15:55:34.324Z,71.84
2017-12-30T15:58:05.685Z,71.53
2017-12-30T16:00:34.937Z,70.82
2017-12-30T16:03:04.742Z,70.42
2017-12-30T16:05:34.053Z,70.23
2017-12-30T16:08:04.291Z,69.61
2017-12-30T16:10:33.876Z,69.08
2017-12-30T16:13:04.029Z,68.96
2017-12-30T16:15:33.321Z,68.79
2017-12-30T16:18:04.015Z,68.93
2017-12-30T16:20:34.440Z,68.41
2017-12-30T16:23:04.863Z,68.54
2017-12-30T16:25:36.178Z,68.58
2017-12-30T16:28:06.902Z,68.65
2017-12-30T16:30:36.319Z,68.49
2017-12-30T16:33:06.071Z,68.36
2017-12-30T16:35:35.502Z,68.63
2017-12-30T16:38:05.888Z,68.75
2017-12-30T16:40:35.204Z,69.47
2017-12-30T16:43:05.133Z,70.00
2017-12-30T16:45:34.394Z,70.66
2017-12-30T16:48:05.059Z,71.08
2017-12-30T16:50:34.667Z,71.39
2017-12-30T16:53:04.019Z,71.57
2017-12-30T16:56:04.386Z,71.83
2017-12-30T16:58:33.941Z,71.62
2017-12-30T17:01:03.374Z,71.48
2017-12-30T17:03:32.588Z,71.02
2017-12-30T17:06:03.280Z,71.00
2017-12-30T17:08:32.542Z,70.96
2017-12-30T17:11:02.187Z,70.97
2017-12-30T17:13:31.690Z,70.50
2017-12-30T17:16:02.715Z,70.34
2017-12-30T17:18:32.427Z,70.16
2017-12-30T17:21:02.367Z,69.89
2017-12-30T17:23:33.822Z,69.75
2017-12-30T17:26:04.957Z,69.72
2017-12-30T17:28:34.444Z,69.68
2017-12-30T17:31:04.463Z,69.49
2017-12-30T17:33:34.013Z,69.42
2017-12-30T17:36:04.577Z,69.42
2017-12-30T17:38:33.824Z,69.37
2017-12-30T17:41:04.163Z,69.64
2017-12-30T17:43:34.183Z,69.63
2017-12-30T17:46:04.554Z,69.70
2017-12-30T17:48:33.842Z,69.75
2017-12-30T17:51:03.724Z,69.79
2017-12-30T17:53:34.403Z,70.04
2017-12-30T17:56:04.862Z,70.24
2017-12-30T17:58:34.099Z,70.35
2017-12-30T18:01:04.418Z,70.50
2017-12-30T18:03:34.173Z,70.27
2017-12-30T18:06:04.652Z,70.31
2017-12-30T18:08:35.194Z,70.34
2017-12-30T18:11:05.634Z,70.39
2017-12-30T18:13:36.627Z,70.69
2017-12-30T18:16:07.252Z,70.61
2017-12-30T18:18:36.606Z,71.13
2017-12-30T18:21:06.264Z,71.50
2017-12-30T18:23:35.536Z,72.07
2017-12-30T18:26:07.148Z,72.47
2017-12-30T18:28:38.584Z,72.93
2017-12-30T18:31:07.932Z,73.53
2017-12-30T18:33:37.456Z,74.22
2017-12-30T18:36:07.153Z,74.45
2017-12-30T18:38:36.423Z,74.95
2017-12-30T18:41:06.064Z,75.24
2017-12-30T18:43:35.649Z,75.72
2017-12-30T18:46:06.034Z,76.27
2017-12-30T18:48:35.667Z,76.78
2017-12-30T18:51:05.730Z,78.32
2017-12-30T18:53:35.253Z,79.55
2017-12-30T18:56:05.730Z,80.40
2017-12-30T18:58:35.956Z,81.27
2017-12-30T19:01:05.905Z,82.10
2017-12-30T19:03:35.806Z,83.34
2017-12-30T19:06:13.526Z,83.99
2017-12-30T19:08:43.600Z,84.28
2017-12-30T19:11:13.458Z,84.81
2017-12-30T19:13:43.783Z,85.66
2017-12-30T19:16:14.397Z,85.75
2017-12-30T19:18:44.388Z,85.81
2017-12-30T19:21:14.627Z,85.79
2017-12-30T19:23:44.746Z,86.06
2017-12-30T19:26:14.499Z,86.03
2017-12-30T19:28:44.259Z,86.07
2017-12-30T19:31:14.531Z,86.07
2017-12-30T19:33:44.112Z,85.93
2017-12-30T19:36:14.665Z,85.82
2017-12-30T19:38:44.744Z,85.83
2017-12-30T19:41:15.045Z,86.05
2017-12-30T19:43:44.457Z,86.25
2017-12-30T19:46:13.766Z,86.39
2017-12-30T19:48:43.446Z,86.41
2017-12-30T19:51:13.206Z,86.97
2017-12-30T19:53:42.614Z,87.20
2017-12-30T19:56:12.287Z,86.58
2017-12-30T19:58:42.056Z,86.12
2017-12-30T20:01:11.764Z,85.96
2017-12-30T20:03:41.128Z,85.54
2017-12-30T20:06:10.777Z,85.23
2017-12-30T20:08:40.187Z,84.92
2017-12-30T20:11:09.618Z,85.50
2017-12-30T20:13:38.976Z,85.42
2017-12-30T20:16:08.224Z,84.95
2017-12-30T20:18:37.748Z,84.71
2017-12-30T20:21:07.173Z,84.82
2017-12-30T20:23:36.539Z,84.10
2017-12-30T20:26:07.136Z,84.50
2017-12-30T20:28:40.608Z,84.82
2017-12-30T20:31:26.221Z,84.89
2017-12-30T20:33:55.783Z,85.08
2017-12-30T20:36:25.047Z,85.02
2017-12-30T20:38:54.252Z,85.18
2017-12-30T20:41:25.622Z,85.65
2017-12-30T20:43:54.933Z,85.66
2017-12-30T20:46:24.196Z,86.17
2017-12-30T20:51:22.663Z,86.28
2017-12-30T20:53:52.223Z,86.00
2017-12-30T20:56:22.174Z,85.61
2017-12-30T20:58:51.620Z,85.42
2017-12-30T21:01:21.870Z,85.02
2017-12-30T21:03:51.825Z,84.83
2017-12-30T21:06:21.452Z,84.74
2017-12-30T21:08:51.640Z,84.50
2017-12-30T21:11:21.880Z,84.30
2017-12-30T21:13:51.928Z,84.20
2017-12-30T21:16:23.294Z,84.06
2017-12-30T21:18:53.253Z,84.27
2017-12-30T21:21:22.476Z,84.52
2017-12-30T21:23:51.732Z,84.91
2017-12-30T21:26:21.392Z,85.20
2017-12-30T21:28:50.664Z,85.43
2017-12-30T21:31:20.154Z,85.33
2017-12-30T21:33:49.894Z,85.51
2017-12-30T21:36:19.297Z,85.56
2017-12-30T21:38:48.996Z,85.50
2017-12-30T21:41:18.608Z,85.55
2017-12-30T21:43:48.309Z,85.50
2017-12-30T21:46:17.657Z,85.54
2017-12-30T21:48:47.271Z,85.64
2017-12-30T21:51:16.504Z,85.86
2017-12-30T21:53:45.781Z,85.82
2017-12-30T21:56:15.607Z,86.26
2017-12-30T21:58:44.820Z,86.49
2017-12-30T22:01:14.870Z,86.61
2017-12-30T22:03:56.379Z,86.91
2017-12-30T22:06:37.454Z,87.05
2017-12-30T22:09:07.692Z,87.13
2017-12-30T22:11:38.020Z,87.25
2017-12-30T22:14:07.864Z,87.26
2017-12-30T22:16:38.253Z,87.45
2017-12-30T22:19:07.960Z,87.42
2017-12-30T22:21:37.638Z,87.37
2017-12-30T22:24:08.721Z,87.01
2017-12-30T22:30:09.476Z,87.00
2017-12-30T22:32:38.709Z,86.67
2017-12-30T22:35:08.271Z,86.74
2017-12-30T22:37:37.514Z,86.71
2017-12-30T22:40:06.742Z,86.74
2017-12-30T22:42:36.530Z,86.72
2017-12-30T22:45:06.130Z,86.77
2017-12-30T22:47:35.352Z,86.80
2017-12-30T22:50:07.040Z,86.55
2017-12-30T22:52:36.350Z,86.61
2017-12-30T22:55:05.961Z,86.57
2017-12-30T22:57:35.181Z,86.88
2017-12-30T23:00:05.961Z,86.80
2017-12-30T23:02:35.477Z,86.48
2017-12-30T23:07:43.766Z,86.51
2017-12-30T23:10:13.585Z,86.62
2017-12-30T23:12:43.436Z,86.68
2017-12-30T23:15:13.716Z,86.84
2017-12-30T23:17:43.126Z,86.87
2017-12-30T23:20:12.466Z,86.95
2017-12-30T23:22:42.319Z,87.44
2017-12-30T23:25:11.889Z,87.79
2017-12-30T23:27:41.511Z,87.77
2017-12-30T23:30:11.361Z,87.79
2017-12-30T23:32:40.906Z,87.97
2017-12-30T23:35:10.915Z,88.14
2017-12-30T23:37:40.259Z,88.09
2017-12-30T23:40:09.726Z,88.16
2017-12-30T23:42:39.123Z,88.30
2017-12-30T23:45:08.878Z,88.21
2017-12-30T23:47:38.496Z,88.36
2017-12-30T23:50:07.732Z,88.90
2017-12-30T23:55:14.228Z,89.20
2017-12-30T23:57:43.526Z,89.62
